Time;durP1;ratioP1;P1;durP2;ratioP2;P2;SDS_P1;SDS_P2;PMS_P1;PMS_P2;Temp;Humidity;BMP_temperature;BMP_pressure;BME280_temperature;BME280_humidity;BME280_pressure;Samples;Min_cycle;Max_cycle;Signal;HPM_P1;HPM_P2
2023/07/04 00:01:26;;;;;;;4.87;1.90;;;14.10;99.90;13.40;99773;;;;569107;249;24099;-78
2023/07/04 00:03:50;;;;;;;1.50;1.40;;;14.10;99.90;13.40;99775;;;;561262;252;24124;-79
2023/07/04 00:06:21;;;;;;;4.93;2.27;;;14.00;99.90;13.30;99776;;;;567748;249;24106;-79
2023/07/04 00:08:48;;;;;;;1.97;1.60;;;14.00;99.90;13.30;99766;;;;576193;245;24065;-78
2023/07/04 00:11:17;;;;;;;4.50;1.77;;;13.90;99.90;13.30;99769;;;;586085;244;24052;-79
2023/07/04 00:13:42;;;;;;;2.13;1.63;;;13.90;99.90;13.30;99760;;;;578410;244;24109;-78
2023/07/04 00:16:11;;;;;;;5.50;2.00;;;13.90;99.90;13.30;99762;;;;578220;244;24077;-78
2023/07/04 00:18:39;;;;;;;3.07;2.00;;;13.80;99.90;13.20;99765;;;;578190;244;24058;-79
2023/07/04 00:21:11;;;;;;;1.80;1.70;;;13.80;99.90;13.10;99769;;;;578216;244;24071;-78
2023/07/04 00:23:38;;;;;;;2.83;1.67;;;13.80;99.90;13.10;99778;;;;577743;244;24139;-79
2023/07/04 00:26:04;;;;;;;4.17;2.00;;;13.70;99.90;13.00;99777;;;;577284;244;25120;-79
2023/07/04 00:28:34;;;;;;;2.60;1.77;;;13.60;99.90;13.00;99774;;;;571637;244;24085;-79
2023/07/04 00:31:02;;;;;;;2.70;2.20;;;13.60;99.90;13.00;99766;;;;576135;249;24134;-79
2023/07/04 00:33:30;;;;;;;5.27;2.33;;;13.60;99.90;13.00;99771;;;;565216;250;24075;-79
2023/07/04 00:36:00;;;;;;;1.87;1.67;;;13.60;99.90;13.00;99779;;;;562210;250;24097;-78
2023/07/04 00:38:26;;;;;;;7.77;1.87;;;13.60;99.90;13.00;99787;;;;577852;244;24074;-78
2023/07/04 00:40:54;;;;;;;8.73;2.53;;;13.60;99.90;13.10;99781;;;;565660;250;24066;-79
2023/07/04 00:43:24;;;;;;;4.87;1.87;;;13.70;99.90;13.10;99783;;;;565286;250;24082;-79
2023/07/04 00:45:56;;;;;;;4.83;2.13;;;13.80;99.90;13.20;99781;;;;578090;244;24119;-78
2023/07/04 00:48:20;;;;;;;6.43;2.20;;;13.70;99.90;13.20;99794;;;;565397;250;24105;-79
2023/07/04 00:50:49;;;;;;;3.33;2.13;;;13.80;99.90;13.20;99791;;;;568568;249;24130;-79
2023/07/04 00:53:18;;;;;;;2.07;1.97;;;13.80;99.90;13.20;99800;;;;578005;244;24049;-80
2023/07/04 00:55:44;;;;;;;3.47;2.13;;;13.90;99.90;13.30;99789;;;;568213;249;24106;-78
2023/07/04 00:58:13;;;;;;;4.17;2.10;;;13.90;99.90;13.30;99786;;;;565287;250;24133;-79
2023/07/04 01:00:40;;;;;;;3.30;2.40;;;13.80;99.90;13.30;99788;;;;566572;250;24103;-79
2023/07/04 01:03:11;;;;;;;5.93;1.90;;;13.90;99.90;13.30;99789;;;;579097;244;24071;-78
2023/07/04 01:05:51;;;;;;;5.40;2.07;;;13.90;99.90;13.30;99797;;;;568111;249;24098;-78
2023/07/04 01:08:19;;;;;;;5.27;2.00;;;13.90;99.90;13.30;99805;;;;579163;245;24064;-79
2023/07/04 01:10:47;;;;;;;8.67;2.70;;;13.90;99.90;13.40;99795;;;;577090;249;24084;-79
2023/07/04 01:13:36;;;;;;;4.97;2.00;;;13.90;99.90;13.30;99796;;;;576370;249;24081;-78
2023/07/04 01:16:05;;;;;;;5.60;2.20;;;13.90;99.90;13.40;99794;;;;565710;250;24089;-78
2023/07/04 01:18:36;;;;;;;3.50;2.10;;;14.00;99.90;13.40;99794;;;;573932;250;24074;-79
2023/07/04 01:21:01;;;;;;;3.17;2.03;;;14.00;99.90;13.40;99789;;;;578082;244;25165;-79
2023/07/04 01:23:44;;;;;;;5.60;2.40;;;14.00;99.90;13.40;99790;;;;568024;249;24092;-79
2023/07/04 01:26:36;;;;;;;3.33;1.90;;;14.00;99.90;13.40;99789;;;;567973;249;24075;-79
2023/07/04 01:29:08;;;;;;;2.17;2.00;;;14.00;99.90;13.40;99799;;;;565873;250;25133;-79
2023/07/04 01:31:36;;;;;;;4.57;2.37;;;14.00;99.90;13.40;99788;;;;564703;250;24104;-78
2023/07/04 01:34:07;;;;;;;4.73;2.27;;;14.00;99.90;13.40;99788;;;;586821;244;24047;-78
2023/07/04 01:36:38;;;;;;;4.03;2.50;;;14.10;99.90;13.40;99788;;;;575938;249;24171;-78
2023/07/04 01:39:03;;;;;;;2.30;2.07;;;14.00;99.90;13.50;99788;;;;567769;249;24102;-78
2023/07/04 01:41:32;;;;;;;4.60;2.20;;;14.00;99.90;13.50;99788;;;;563610;249;24107;-79
2023/07/04 01:44:03;;;;;;;3.97;2.17;;;14.00;99.90;13.50;99794;;;;564958;250;24098;-78
2023/07/04 01:46:30;;;;;;;4.50;2.30;;;14.00;99.90;13.50;99788;;;;564736;250;24078;-78
2023/07/04 01:48:58;;;;;;;4.47;2.40;;;14.00;99.90;13.50;99792;;;;573659;244;25186;-78
2023/07/04 01:51:34;;;;;;;6.43;2.63;;;14.10;99.90;13.50;99796;;;;568371;249;24089;-78
2023/07/04 01:54:02;;;;;;;4.40;2.33;;;14.10;99.90;13.50;99786;;;;573657;250;24083;-78
2023/07/04 01:56:30;;;;;;;6.87;2.43;;;14.10;99.90;13.50;99787;;;;563060;251;24173;-78
2023/07/04 01:58:58;;;;;;;4.90;2.50;;;14.10;99.90;13.50;99792;;;;568333;249;24086;-78
2023/07/04 02:01:27;;;;;;;6.17;2.40;;;14.10;99.90;13.50;99787;;;;565605;250;24104;-78
2023/07/04 02:03:55;;;;;;;5.47;2.50;;;14.10;99.90;13.50;99787;;;;565159;250;24090;-79
2023/07/04 02:06:23;;;;;;;10.60;3.10;;;14.10;99.90;13.50;99783;;;;577868;244;24074;-78
2023/07/04 02:08:53;;;;;;;5.70;2.20;;;14.10;99.90;13.60;99785;;;;565633;250;24117;-78
2023/07/04 02:11:23;;;;;;;3.43;2.43;;;14.10;99.90;13.60;99777;;;;569329;248;25117;-78
2023/07/04 02:13:48;;;;;;;5.03;2.53;;;14.20;99.90;13.60;99785;;;;579157;244;24069;-78
2023/07/04 02:16:16;;;;;;;6.93;2.03;;;14.20;99.90;13.60;99785;;;;566487;250;25135;-78
2023/07/04 02:18:44;;;;;;;2.33;2.13;;;14.20;99.90;13.60;99788;;;;565964;250;24138;-79
2023/07/04 02:21:11;;;;;;;7.77;2.77;;;14.20;99.90;13.60;99781;;;;578513;244;24077;-78
2023/07/04 02:23:39;;;;;;;3.57;2.13;;;14.20;99.90;13.60;99778;;;;566081;250;24077;-78
2023/07/04 02:26:07;;;;;;;2.73;2.17;;;14.20;99.90;13.60;99783;;;;565678;250;24089;-78
2023/07/04 02:28:36;;;;;;;4.43;1.97;;;14.30;99.90;13.70;99785;;;;578366;244;24037;-79
2023/07/04 02:31:04;;;;;;;4.50;2.27;;;14.20;99.90;13.70;99782;;;;565634;250;24087;-78
2023/07/04 02:33:32;;;;;;;6.13;2.30;;;14.30;99.90;13.70;99792;;;;565073;250;24103;-79
2023/07/04 02:36:00;;;;;;;4.83;2.37;;;14.30;99.90;13.70;99781;;;;577800;244;24045;-79
2023/07/04 02:38:28;;;;;;;6.07;2.33;;;14.30;99.90;13.70;99787;;;;565562;250;24076;-78
2023/07/04 02:40:57;;;;;;;3.17;2.73;;;14.40;99.90;13.70;99785;;;;564988;250;24071;-79
2023/07/04 02:43:25;;;;;;;3.00;2.47;;;14.30;99.90;13.80;99776;;;;577940;244;24043;-79
2023/07/04 02:45:53;;;;;;;6.57;2.30;;;14.40;99.90;13.80;99774;;;;565555;250;24097;-78
2023/07/04 02:48:21;;;;;;;3.53;2.80;;;14.40;99.90;13.80;99779;;;;564921;250;24072;-78
2023/07/04 02:50:49;;;;;;;8.33;2.43;;;14.40;99.90;13.80;99779;;;;577697;244;24126;-78
2023/07/04 02:53:21;;;;;;;5.07;2.57;;;14.40;99.90;13.90;99781;;;;565163;250;24064;-79
2023/07/04 02:55:45;;;;;;;7.03;2.20;;;14.40;99.90;13.90;99773;;;;568041;249;24106;-77
2023/07/04 02:58:17;;;;;;;3.00;2.60;;;14.50;99.90;13.90;99771;;;;566128;250;24174;-79
2023/07/04 03:00:42;;;;;;;3.73;2.93;;;14.50;99.90;13.90;99770;;;;568291;249;24111;-79
2023/07/04 03:03:10;;;;;;;4.23;2.33;;;14.50;99.90;14.00;99764;;;;573810;250;24087;-78
2023/07/04 03:05:38;;;;;;;5.30;2.77;;;14.50;99.90;14.00;99766;;;;564659;250;24066;-79
2023/07/04 03:08:10;;;;;;;3.40;2.33;;;14.60;99.90;14.00;99778;;;;577625;244;24067;-78
2023/07/04 03:10:34;;;;;;;6.07;2.57;;;14.60;99.90;14.00;99766;;;;575713;249;24096;-78
2023/07/04 03:13:03;;;;;;;7.30;2.53;;;14.70;99.90;14.10;99767;;;;573898;250;24079;-79
2023/07/04 03:15:31;;;;;;;9.33;2.60;;;14.60;99.90;14.10;99765;;;;564731;250;24086;-79
2023/07/04 03:17:59;;;;;;;9.73;2.70;;;14.60;99.90;14.10;99753;;;;577722;244;24172;-78
2023/07/04 03:20:27;;;;;;;8.10;2.47;;;14.70;99.90;14.20;99758;;;;565230;250;24075;-79
2023/07/04 03:22:55;;;;;;;6.17;2.87;;;14.80;99.90;14.20;99764;;;;565546;249;25121;-79
2023/07/04 03:25:22;;;;;;;4.83;2.90;;;14.80;99.90;14.30;99759;;;;578851;244;24061;-78
2023/07/04 03:27:50;;;;;;;4.67;2.40;;;14.80;99.90;14.30;99750;;;;566025;250;24101;-77
2023/07/04 03:30:18;;;;;;;3.73;3.30;;;14.90;99.90;14.40;99747;;;;565655;250;24079;-78
2023/07/04 03:32:46;;;;;;;5.63;2.83;;;14.90;99.90;14.40;99756;;;;578633;244;24049;-78
2023/07/04 03:35:14;;;;;;;8.83;3.07;;;15.00;99.90;14.40;99745;;;;566211;250;24157;-79
2023/07/04 03:37:45;;;;;;;4.03;2.80;;;15.00;99.90;14.40;99739;;;;565686;250;24084;-78
2023/07/04 03:40:10;;;;;;;7.27;3.27;;;15.00;99.90;14.50;99741;;;;587210;244;24110;-79
2023/07/04 03:42:38;;;;;;;6.30;3.00;;;15.00;99.90;14.50;99737;;;;574378;249;24103;-79
2023/07/04 03:45:07;;;;;;;4.57;2.97;;;15.10;99.90;14.60;99729;;;;565196;250;24091;-79
2023/07/04 03:47:34;;;;;;;6.67;3.37;;;15.10;99.90;14.60;99723;;;;586807;244;24067;-79
2023/07/04 03:50:06;;;;;;;4.60;2.67;;;15.20;99.90;14.60;99721;;;;567952;249;24082;-78
2023/07/04 03:52:30;;;;;;;6.37;3.30;;;15.20;99.90;14.70;99715;;;;567877;249;24156;-78
2023/07/04 03:54:58;;;;;;;4.90;3.17;;;15.20;99.90;14.70;99715;;;;566464;250;24096;-78
2023/07/04 03:57:27;;;;;;;5.43;3.20;;;15.30;99.90;14.80;99724;;;;565026;246;24147;-79
2023/07/04 03:59:55;;;;;;;4.97;2.93;;;15.30;99.90;14.80;99729;;;;577990;244;24096;-78
2023/07/04 04:02:23;;;;;;;8.30;3.27;;;15.40;99.90;14.80;99728;;;;565252;250;24094;-78
2023/07/04 04:04:51;;;;;;;7.07;3.23;;;15.40;99.90;14.80;99726;;;;565103;250;24091;-79
2023/07/04 04:07:19;;;;;;;7.60;3.23;;;15.40;99.90;14.90;99722;;;;577995;244;24046;-79
2023/07/04 04:09:47;;;;;;;4.90;3.33;;;15.40;99.90;15.70;99725;;;;565642;250;24079;-79
2023/07/04 04:12:15;;;;;;;5.73;3.57;;;16.10;99.90;16.90;99716;;;;565117;250;24117;-79
2023/07/04 04:14:44;;;;;;;8.57;3.10;;;17.20;99.90;18.10;99726;;;;578008;244;24053;-78
2023/07/04 04:17:11;;;;;;;7.57;3.80;;;18.40;99.90;19.30;99726;;;;565505;250;24085;-80
2023/07/04 04:19:39;;;;;;;6.10;2.73;;;19.70;99.90;19.90;99725;;;;565187;250;23077;-80
2023/07/04 04:22:07;;;;;;;4.17;3.13;;;20.50;99.90;20.00;99724;;;;577989;244;24111;-79
2023/07/04 04:24:36;;;;;;;6.37;3.63;;;20.60;99.90;19.80;99721;;;;565572;250;23119;-79
2023/07/04 04:27:07;;;;;;;5.27;3.23;;;20.50;99.90;19.50;99713;;;;568504;249;24148;-79
2023/07/04 04:29:30;;;;;;;8.50;3.17;;;20.30;99.90;19.30;99716;;;;578899;244;23090;-79
2023/07/04 04:31:58;;;;;;;7.03;2.80;;;20.00;99.90;19.20;99716;;;;565626;250;24139;-79
2023/07/04 04:34:26;;;;;;;4.93;2.60;;;19.90;99.90;19.20;99710;;;;565575;249;24090;-79
2023/07/04 04:36:54;;;;;;;6.80;3.17;;;19.80;99.90;19.20;99719;;;;578825;244;23122;-79
2023/07/04 04:39:22;;;;;;;7.10;2.77;;;19.80;99.90;19.20;99712;;;;566018;250;24076;-79
2023/07/04 04:41:52;;;;;;;4.33;2.73;;;19.70;99.90;19.10;99710;;;;565590;250;24071;-79
2023/07/04 04:44:19;;;;;;;8.10;3.07;;;19.60;99.90;19.10;99708;;;;578144;244;24166;-79
2023/07/04 04:46:48;;;;;;;5.17;2.80;;;19.60;99.90;19.10;99708;;;;576999;249;24072;-79
2023/07/04 04:49:14;;;;;;;4.37;2.70;;;19.60;99.90;19.20;99709;;;;562485;250;24126;-79
2023/07/04 04:51:44;;;;;;;4.23;2.60;;;19.80;99.90;19.30;99709;;;;576354;249;24084;-79
2023/07/04 04:54:13;;;;;;;5.83;3.00;;;19.80;99.90;19.20;99709;;;;565494;250;24083;-79
2023/07/04 04:56:44;;;;;;;7.50;3.57;;;19.70;99.90;18.90;99710;;;;564510;250;23101;-79
2023/07/04 04:59:09;;;;;;;5.20;2.40;;;19.30;99.90;18.80;99712;;;;568221;249;24096;-79
2023/07/04 05:01:37;;;;;;;7.17;2.90;;;19.30;99.90;18.60;99710;;;;566364;250;24079;-79
2023/07/04 05:04:05;;;;;;;9.03;3.20;;;19.20;99.90;18.50;99708;;;;565409;250;24114;-79
2023/07/04 05:06:33;;;;;;;13.40;3.03;;;19.00;99.90;18.40;99700;;;;577936;244;24034;-79
2023/07/04 05:09:06;;;;;;;6.03;2.80;;;18.90;99.90;18.50;99704;;;;565478;250;24079;-79
2023/07/04 05:11:30;;;;;;;9.35;3.40;;;19.00;99.90;18.60;99695;;;;559923;250;46156;-79
2023/07/04 05:14:01;;;;;;;5.90;2.83;;;19.00;99.90;18.60;99698;;;;577605;244;24088;-79
2023/07/04 05:16:26;;;;;;;8.13;2.97;;;19.10;99.90;18.50;99708;;;;586510;244;23082;-79
2023/07/04 05:18:54;;;;;;;11.23;3.00;;;19.00;99.90;18.40;99710;;;;565253;250;24087;-79
2023/07/04 05:21:26;;;;;;;8.07;3.07;;;18.90;99.90;18.40;99705;;;;564713;250;24129;-80
2023/07/04 05:23:53;;;;;;;5.43;3.07;;;18.90;99.90;18.30;99705;;;;573556;244;24061;-80
2023/07/04 05:26:21;;;;;;;7.47;3.23;;;18.80;99.90;18.30;99703;;;;567691;249;23107;-79
2023/07/04 05:28:49;;;;;;;4.00;2.33;;;18.80;99.90;18.40;99708;;;;573465;250;24100;-78
2023/07/04 05:31:20;;;;;;;3.43;2.70;;;18.80;99.90;18.40;99711;;;;563673;249;24088;-79
2023/07/04 05:33:45;;;;;;;6.90;3.30;;;19.00;99.90;18.60;99703;;;;569522;248;24078;-78
2023/07/04 05:36:19;;;;;;;8.87;3.50;;;19.00;99.90;18.70;99699;;;;577677;244;24082;-78
2023/07/04 05:38:50;;;;;;;6.80;3.00;;;19.30;99.90;18.80;99702;;;;576119;244;24114;-79
2023/07/04 05:41:15;;;;;;;7.83;2.97;;;19.30;99.90;19.00;99699;;;;567397;249;24190;-78
2023/07/04 05:43:46;;;;;;;3.03;2.83;;;19.40;99.90;19.10;99696;;;;562069;250;24175;-80
2023/07/04 05:46:14;;;;;;;6.43;3.00;;;19.50;99.90;19.20;99693;;;;587169;243;24045;-80
2023/07/04 05:48:42;;;;;;;11.70;3.00;;;19.70;99.90;19.40;99699;;;;576779;249;24081;-79
2023/07/04 05:51:07;;;;;;;7.23;3.07;;;19.90;99.90;19.60;99703;;;;574675;249;24144;-78
2023/07/04 05:53:35;;;;;;;5.63;2.93;;;20.00;99.90;19.80;99702;;;;565530;250;24152;-78
2023/07/04 05:56:11;;;;;;;9.73;3.00;;;20.30;99.90;20.10;99704;;;;565181;250;23104;-79
2023/07/04 05:58:45;;;;;;;8.47;3.53;;;20.90;99.90;20.50;99700;;;;578334;244;24072;-79
2023/07/04 06:01:25;;;;;;;4.97;3.10;;;20.90;99.90;21.00;99703;;;;577018;249;24087;-78
2023/07/04 06:03:56;;;;;;;10.07;3.03;;;21.40;99.90;21.70;99705;;;;566169;250;24077;-79
2023/07/04 06:06:21;;;;;;;5.27;3.33;;;22.10;99.90;22.20;99707;;;;576269;249;24146;-79
2023/07/04 06:08:50;;;;;;;7.27;2.93;;;23.00;99.90;22.50;99699;;;;562041;250;24135;-79
2023/07/04 06:11:17;;;;;;;11.73;3.27;;;22.90;99.90;22.40;99701;;;;565040;250;24083;-80
2023/07/04 06:13:45;;;;;;;5.20;3.33;;;23.00;98.80;22.10;99703;;;;572240;244;24048;-79
2023/07/04 06:16:13;;;;;;;9.00;3.40;;;22.80;98.30;21.90;99704;;;;565662;250;24075;-79
2023/07/04 06:18:43;;;;;;;8.43;3.20;;;22.30;98.00;21.80;99705;;;;565249;250;24075;-79
2023/07/04 06:21:12;;;;;;;11.20;3.27;;;22.30;97.90;22.10;99692;;;;578016;244;24048;-79
2023/07/04 06:23:40;;;;;;;8.57;3.00;;;22.50;97.90;22.70;99695;;;;565714;250;24099;-79
2023/07/04 06:26:14;;;;;;;7.63;3.13;;;23.10;97.20;23.30;99701;;;;565078;250;23112;-79
2023/07/04 06:28:39;;;;;;;5.77;3.03;;;23.70;95.40;23.70;99697;;;;577887;244;23078;-79
2023/07/04 06:31:07;;;;;;;9.03;3.77;;;24.10;94.20;23.80;99695;;;;568113;249;24078;-78
2023/07/04 06:33:35;;;;;;;5.67;3.40;;;24.30;92.70;24.00;99690;;;;576324;249;24091;-79
2023/07/04 06:36:03;;;;;;;9.87;3.47;;;24.50;92.30;24.40;99692;;;;565656;250;24085;-79
2023/07/04 06:38:32;;;;;;;6.63;3.50;;;25.30;90.40;24.80;99685;;;;564703;250;23104;-80
2023/07/04 06:41:02;;;;;;;13.17;3.43;;;25.30;90.40;25.30;99679;;;;577554;244;24105;-79
2023/07/04 06:43:30;;;;;;;6.33;3.50;;;25.70;89.60;25.60;99679;;;;561496;250;24082;-80
2023/07/04 06:46:07;;;;;;;5.93;3.37;;;26.10;87.00;25.80;99685;;;;564826;250;23100;-80
2023/07/04 06:48:36;;;;;;;6.53;3.40;;;26.40;82.60;25.90;99677;;;;577897;244;23084;-79
2023/07/04 06:51:06;;;;;;;15.20;3.57;;;26.30;82.50;25.60;99677;;;;565243;250;23084;-79
2023/07/04 06:53:34;;;;;;;7.03;3.50;;;26.20;83.10;25.60;99676;;;;564893;250;23089;-81
2023/07/04 06:56:11;;;;;;;6.00;3.43;;;26.10;81.50;25.40;99674;;;;577471;244;23077;-78
2023/07/04 06:58:43;;;;;;;9.80;3.70;;;25.90;81.80;25.30;99671;;;;564275;249;24117;-80
2023/07/04 07:01:11;;;;;;;7.00;3.70;;;25.70;79.90;25.20;99677;;;;562935;249;24170;-78
2023/07/04 07:03:40;;;;;;;11.03;4.07;;;25.80;80.70;25.30;99683;;;;574460;250;24152;-79
2023/07/04 07:06:08;;;;;;;8.57;3.90;;;25.80;80.70;25.60;99678;;;;574878;244;23073;-79
2023/07/04 07:08:39;;;;;;;8.67;3.80;;;26.00;81.00;25.80;99685;;;;568188;249;24090;-79
2023/07/04 07:11:04;;;;;;;8.80;3.07;;;26.20;79.50;25.80;99681;;;;576171;245;23075;-79
2023/07/04 07:13:32;;;;;;;7.17;3.07;;;26.30;78.00;26.80;99677;;;;576969;247;23112;-79
2023/07/04 07:16:21;;;;;;;7.87;3.77;;;27.00;76.90;28.10;99683;;;;576332;245;23054;-79
2023/07/04 07:18:48;;;;;;;8.23;3.47;;;28.20;74.40;30.50;99687;;;;576795;249;23095;-79
2023/07/04 07:21:20;;;;;;;11.02;4.10;;;31.90;63.80;31.60;99679;;;;574061;250;23097;-80
2023/07/04 07:23:48;;;;;;;7.25;3.55;;;31.80;63.60;31.90;99684;;;;565005;250;24130;-80
2023/07/04 07:26:16;;;;;;;14.35;4.37;;;32.30;60.20;32.70;99682;;;;573853;244;23078;-80
2023/07/04 07:28:44;;;;;;;7.53;3.97;;;33.70;57.00;33.30;99686;;;;563769;249;24133;-80
2023/07/04 07:31:21;;;;;;;9.18;3.53;;;33.60;56.30;35.00;99689;;;;565608;250;23085;-80
2023/07/04 07:33:49;;;;;;;8.23;3.70;;;35.00;55.30;36.10;99681;;;;564290;250;23100;-80
2023/07/04 07:36:14;;;;;;;5.90;3.15;;;36.30;51.60;37.00;99691;;;;573907;244;23089;-80
2023/07/04 07:38:42;;;;;;;5.82;3.72;;;37.30;50.30;37.20;99692;;;;567285;249;23098;-80
2023/07/04 07:41:10;;;;;;;10.63;3.90;;;37.70;48.90;37.20;99696;;;;570924;245;23091;-81
2023/07/04 07:43:37;;;;;;;7.18;3.70;;;37.80;46.90;36.30;99696;;;;561719;249;23090;-80
2023/07/04 07:46:08;;;;;;;14.05;3.92;;;37.10;46.30;35.80;99703;;;;561947;250;23097;-80
2023/07/04 07:48:36;;;;;;;10.00;3.97;;;36.60;46.80;34.50;99703;;;;564802;250;23105;-80
2023/07/04 07:51:07;;;;;;;10.02;3.62;;;35.60;47.30;33.60;99699;;;;577523;244;23085;-79
2023/07/04 07:53:33;;;;;;;10.23;4.10;;;34.60;48.50;34.00;99702;;;;576088;249;23113;-79
2023/07/04 07:56:01;;;;;;;8.82;3.45;;;34.40;49.20;35.30;99696;;;;565265;250;24130;-80
2023/07/04 07:58:29;;;;;;;9.13;3.75;;;35.40;48.70;36.40;99691;;;;564791;250;23127;-79
2023/07/04 08:00:58;;;;;;;10.05;3.85;;;37.80;46.50;37.80;99690;;;;577957;244;23059;-80
2023/07/04 08:03:26;;;;;;;9.15;4.65;;;39.30;45.10;39.30;99702;;;;565632;250;23098;-80
2023/07/04 08:05:54;;;;;;;10.77;4.20;;;39.20;44.90;38.80;99704;;;;564864;250;23104;-80
2023/07/04 08:08:22;;;;;;;11.12;3.95;;;39.40;43.10;37.40;99708;;;;577880;242;23110;-80
2023/07/04 08:10:50;;;;;;;14.98;4.57;;;38.40;43.60;36.90;99708;;;;566480;249;23130;-80
2023/07/04 08:13:18;;;;;;;13.68;4.30;;;37.70;44.40;36.30;99708;;;;565605;250;23099;-81
2023/07/04 08:15:55;;;;;;;8.70;4.37;;;37.10;44.90;36.30;99708;;;;578288;244;23069;-80
2023/07/04 08:18:24;;;;;;;8.85;3.75;;;36.80;45.70;36.00;99709;;;;576639;249;23094;-80
2023/07/04 08:21:00;;;;;;;14.43;5.35;;;36.50;45.40;35.60;99720;;;;565652;250;23097;-80
2023/07/04 08:23:27;;;;;;;22.60;4.90;;;36.20;46.00;35.90;99722;;;;567790;249;23176;-80
2023/07/04 08:25:55;;;;;;;11.23;4.40;;;36.20;46.00;37.10;99713;;;;586960;244;23079;-80
2023/07/04 08:28:23;;;;;;;10.75;4.55;;;37.10;46.20;38.90;99715;;;;565556;250;24104;-80
2023/07/04 08:30:51;;;;;;;5.18;4.07;;;38.70;44.90;40.00;99729;;;;565032;250;23158;-80
2023/07/04 08:33:20;;;;;;;17.40;5.15;;;41.20;42.90;41.20;99724;;;;577809;244;23087;-80
2023/07/04 08:35:54;;;;;;;15.88;4.85;;;41.10;42.70;41.10;99738;;;;565789;250;24138;-81
2023/07/04 08:38:21;;;;;;;10.93;5.00;;;41.70;40.90;40.10;99736;;;;565176;250;23090;-80
2023/07/04 08:40:52;;;;;;;20.80;5.32;;;40.90;40.80;39.40;99735;;;;578213;244;23110;-79
2023/07/04 08:43:34;;;;;;;6.60;4.75;;;39.80;41.60;39.10;99738;;;;575884;249;23129;-79
2023/07/04 08:46:01;;;;;;;10.43;5.12;;;39.70;41.50;38.60;99734;;;;564700;250;24135;-81
2023/07/04 08:48:29;;;;;;;10.90;4.82;;;39.30;42.10;38.40;99733;;;;567017;249;23140;-81
2023/07/04 08:50:57;;;;;;;10.15;4.72;;;38.90;42.40;38.70;99738;;;;565300;250;24140;-81
2023/07/04 08:53:26;;;;;;;20.48;6.37;;;39.70;42.90;39.60;99737;;;;567328;249;23201;-80
2023/07/04 08:56:12;;;;;;;9.27;4.45;;;40.10;41.10;39.80;99740;;;;565337;250;24167;-80
2023/07/04 08:58:49;;;;;;;7.80;4.93;;;40.10;41.10;40.30;99720;;;;564793;250;23163;-80
2023/07/04 09:01:17;;;;;;;13.43;5.20;;;40.60;41.10;40.80;99723;;;;577599;244;23077;-80
2023/07/04 09:03:51;;;;;;;8.23;5.37;;;40.40;39.50;39.40;99733;;;;567081;249;23083;-81
2023/07/04 09:06:31;;;;;;;17.37;4.90;;;40.40;39.40;38.30;99736;;;;564937;250;24132;-80
2023/07/04 09:09:18;;;;;;;14.50;4.57;;;37.90;41.90;36.70;99751;;;;565062;249;24166;-81
2023/07/04 09:11:46;;;;;;;24.27;5.93;;;36.90;43.40;36.00;99759;;;;568052;245;46109;-80
2023/07/04 09:14:26;;;;;;;22.48;5.75;;;36.80;43.40;34.80;99757;;;;567321;249;23133;-80
2023/07/04 09:16:57;;;;;;;17.70;4.75;;;35.80;43.90;33.30;99757;;;;565164;250;23100;-80
2023/07/04 09:19:22;;;;;;;9.05;5.18;;;34.30;45.30;32.00;99764;;;;566965;249;23112;-80
2023/07/04 09:21:50;;;;;;;20.88;5.00;;;32.90;47.10;31.30;99761;;;;566591;249;23129;-80
2023/07/04 09:24:18;;;;;;;13.10;5.18;;;31.00;49.60;30.30;99774;;;;565853;250;23107;-79
2023/07/04 09:26:50;;;;;;;18.80;4.80;;;30.00;51.10;29.40;99788;;;;578576;244;23066;-79
2023/07/04 09:29:20;;;;;;;15.85;4.60;;;30.00;51.10;28.70;99789;;;;567452;249;24156;-80
2023/07/04 09:31:46;;;;;;;13.77;4.85;;;29.30;52.50;28.10;99774;;;;568647;245;35186;-79
2023/07/04 09:34:38;;;;;;;9.75;4.15;;;28.70;53.90;27.60;99781;;;;564172;249;24084;-78
2023/07/04 09:37:13;;;;;;;13.43;4.18;;;28.10;54.60;28.90;99786;;;;574507;250;23095;-80
2023/07/04 09:39:49;;;;;;;17.37;4.20;;;28.90;55.20;31.00;99791;;;;565075;250;23087;-79
2023/07/04 09:42:19;;;;;;;17.37;4.70;;;30.80;53.20;33.40;99798;;;;574233;244;24106;-79
2023/07/04 09:44:48;;;;;;;8.05;4.18;;;35.50;46.80;35.40;99789;;;;574409;244;24154;-80
2023/07/04 09:47:16;;;;;;;8.55;3.78;;;35.40;46.70;36.50;99788;;;;562784;250;24128;-79
2023/07/04 09:49:44;;;;;;;12.73;4.53;;;37.00;44.70;36.50;99786;;;;565059;250;23140;-79
2023/07/04 09:52:24;;;;;;;23.65;5.25;;;37.30;43.90;35.80;99810;;;;578194;244;24116;-79
2023/07/04 09:55:17;;;;;;;15.48;4.18;;;36.90;43.20;33.90;99822;;;;561992;250;23123;-79
2023/07/04 09:57:41;;;;;;;8.95;3.78;;;35.40;44.30;31.40;99811;;;;575731;245;23162;-79
2023/07/04 10:00:20;;;;;;;16.12;3.90;;;33.10;46.80;30.40;99822;;;;565602;250;23076;-80
2023/07/04 10:02:52;;;;;;;7.35;3.97;;;31.60;49.20;30.70;99826;;;;563482;249;23116;-79
2023/07/04 10:05:19;;;;;;;9.18;4.12;;;31.40;51.10;31.00;99829;;;;567056;249;24113;-79
2023/07/04 10:07:47;;;;;;;10.23;3.37;;;31.50;50.50;31.10;99824;;;;575849;245;24107;-80
2023/07/04 10:10:14;;;;;;;18.80;7.30;;;31.50;50.40;31.20;99829;;;;574336;249;23187;-80
2023/07/04 10:12:43;;;;;;;11.52;3.78;;;32.30;49.60;32.00;99835;;;;565462;250;24137;-80
2023/07/04 10:15:11;;;;;;;13.35;3.78;;;32.30;49.60;32.10;99825;;;;567607;249;23086;-78
2023/07/04 10:17:42;;;;;;;26.62;4.55;;;32.60;49.30;31.60;99831;;;;568445;249;24138;-79
2023/07/04 10:20:13;;;;;;;6.07;3.20;;;32.20;48.60;30.90;99848;;;;568994;248;23071;-80
2023/07/04 10:22:41;;;;;;;13.02;3.97;;;31.70;49.10;29.80;99851;;;;586018;244;24078;-79
2023/07/04 10:25:08;;;;;;;10.00;2.97;;;30.60;50.50;29.00;99854;;;;563630;249;23164;-79
2023/07/04 10:27:36;;;;;;;26.10;4.00;;;29.80;52.30;28.10;99860;;;;568581;250;23111;-80
2023/07/04 10:30:04;;;;;;;6.95;2.65;;;28.90;53.70;27.20;99856;;;;564841;250;23109;-79
2023/07/04 10:32:44;;;;;;;7.10;2.90;;;27.30;56.50;26.60;99871;;;;578290;244;23092;-78
2023/07/04 10:35:15;;;;;;;7.97;3.03;;;27.20;56.50;26.30;99868;;;;564222;249;23123;-79
2023/07/04 10:37:43;;;;;;;8.37;2.80;;;26.80;57.60;26.20;99870;;;;563001;250;23120;-79
2023/07/04 10:40:11;;;;;;;6.77;2.57;;;26.60;58.40;26.50;99882;;;;565640;250;24093;-79
2023/07/04 10:43:04;;;;;;;3.63;2.57;;;27.20;58.00;27.00;99878;;;;578324;244;23084;-79
2023/07/04 10:45:28;;;;;;;13.50;2.60;;;27.20;58.00;27.40;99861;;;;576004;249;25140;-79
2023/07/04 10:47:56;;;;;;;8.93;3.00;;;27.70;57.70;27.60;99877;;;;565526;250;23143;-79
2023/07/04 10:50:37;;;;;;;4.50;2.27;;;28.20;56.30;27.80;99873;;;;564854;250;24113;-79
2023/07/04 10:53:08;;;;;;;5.00;1.92;;;28.10;56.20;28.00;99876;;;;577128;244;23071;-79
2023/07/04 10:55:36;;;;;;;6.57;2.37;;;28.30;55.80;28.00;99881;;;;565457;250;23105;-78
2023/07/04 10:58:13;;;;;;;4.70;2.10;;;28.40;55.30;28.10;99881;;;;564601;250;23114;-79
2023/07/04 11:00:41;;;;;;;6.72;2.40;;;28.40;55.60;28.20;99887;;;;560301;250;23204;-79
2023/07/04 11:03:14;;;;;;;2.70;2.00;;;28.50;55.40;28.10;99885;;;;577863;244;23091;-80
2023/07/04 11:05:42;;;;;;;26.73;3.17;;;28.50;55.10;28.00;99892;;;;567365;249;23128;-80
2023/07/04 11:08:13;;;;;;;8.93;2.50;;;28.40;54.60;27.70;99886;;;;578463;245;24151;-79
2023/07/04 11:10:41;;;;;;;15.45;2.58;;;28.10;55.20;27.50;99890;;;;575692;248;24165;-79
2023/07/04 11:13:09;;;;;;;47.77;5.70;;;27.90;55.30;27.40;99902;;;;565089;250;23128;-80
2023/07/04 11:15:40;;;;;;;9.37;2.37;;;27.80;55.90;27.30;99904;;;;566798;249;24357;-79
2023/07/04 11:18:08;;;;;;;20.00;2.70;;;27.70;56.40;27.30;99892;;;;565245;250;23169;-79
2023/07/04 11:20:40;;;;;;;12.50;1.90;;;27.60;56.00;27.10;99895;;;;567210;249;23120;-79
2023/07/04 11:23:19;;;;;;;16.20;2.60;;;27.50;56.00;26.80;99904;;;;562209;250;23079;-80
2023/07/04 11:25:47;;;;;;;6.53;2.07;;;27.30;55.60;26.70;99901;;;;565071;250;23104;-80